Terminal Aerodrome Forecast
Issued by NWS

Home | Current Version | Previous Version | Text Only | Print | Product List | Glossary On
Versions: 1 2 3 4 5 6 7 8 9 10 11 12 13 14 15 16 17 18 19 20 21 22 23 24
000
FTUS43 KILX 201600 AAA
TAFCMI
TAF AMD
KCMI 201613Z 2016/2112 22008KT P6SM VCTS SCT035CB BKN120
     FM210000 18006KT P6SM SCT120
     FM210900 21006KT P6SM VCTS BKN060CB=

USA.gov is the U.S. government's official web portal to all federal, state and local government web resources and services.